TimeMDT,TemperatureF,Dew PointF,Humidity,Sea Level PressureIn,VisibilityMPH,Wind Direction,Wind SpeedMPH,Gust SpeedMPH,PrecipitationIn,Events,Conditions,WindDirDegrees,DateUTC
12:53 AM,33.1,24.1,70,30.00,10.0,South,6.9,-,N/A,,Clear,190,2012-10-08 06:53:00
1:53 AM,32.0,21.9,66,30.01,10.0,South,6.9,-,N/A,,Clear,180,2012-10-08 07:53:00
2:53 AM,33.1,21.0,61,29.99,10.0,SSW,5.8,-,N/A,,Clear,200,2012-10-08 08:53:00
3:53 AM,30.9,21.9,69,29.97,10.0,SE,6.9,-,N/A,,Clear,130,2012-10-08 09:53:00
4:53 AM,30.9,21.9,69,29.97,10.0,Variable,3.5,-,N/A,,Clear,0,2012-10-08 10:53:00
5:53 AM,28.9,21.9,75,29.98,10.0,SE,3.5,-,N/A,,Clear,130,2012-10-08 11:53:00
6:53 AM,28.0,23.0,81,30.00,10.0,SSW,4.6,-,N/A,,Clear,200,2012-10-08 12:53:00
7:53 AM,28.0,21.9,78,30.02,10.0,South,6.9,-,N/A,,Clear,180,2012-10-08 13:53:00
8:53 AM,34.0,21.9,61,30.00,10.0,SSW,4.6,-,N/A,,Clear,210,2012-10-08 14:53:00
9:53 AM,39.0,24.1,55,29.97,10.0,Calm,Calm,-,N/A,,Clear,0,2012-10-08 15:53:00
10:53 AM,46.9,26.1,44,29.95,10.0,NE,4.6,-,N/A,,Clear,40,2012-10-08 16:53:00
11:53 AM,53.1,26.1,35,29.93,10.0,NE,3.5,-,N/A,,Clear,40,2012-10-08 17:53:00
12:53 PM,57.0,21.0,25,29.90,10.0,Variable,3.5,-,N/A,,Clear,0,2012-10-08 18:53:00
1:53 PM,60.1,18.0,20,29.86,10.0,Variable,3.5,-,N/A,,Clear,0,2012-10-08 19:53:00
2:53 PM,60.1,17.1,19,29.83,10.0,North,6.9,-,N/A,,Clear,10,2012-10-08 20:53:00
3:53 PM,59.0,19.9,22,29.83,10.0,NNE,5.8,-,N/A,,Clear,20,2012-10-08 21:53:00
4:53 PM,59.0,19.0,21,29.83,10.0,NNE,5.8,-,N/A,,Clear,20,2012-10-08 22:53:00
5:53 PM,57.0,21.0,25,29.86,10.0,North,5.8,-,N/A,,Clear,10,2012-10-08 23:53:00
6:53 PM,54.0,21.9,29,29.88,10.0,North,6.9,-,N/A,,Clear,10,2012-10-09 00:53:00
7:53 PM,50.0,23.0,35,29.92,10.0,North,6.9,-,N/A,,Clear,10,2012-10-09 01:53:00
8:53 PM,48.9,28.9,46,29.92,10.0,Calm,Calm,-,N/A,,Clear,0,2012-10-09 02:53:00
9:53 PM,48.9,32.0,52,29.94,10.0,NNW,4.6,-,N/A,,Clear,330,2012-10-09 03:53:00
10:53 PM,48.9,34.0,56,29.94,10.0,NNW,12.7,-,N/A,,Partly Cloudy,340,2012-10-09 04:53:00
11:53 PM,46.9,35.1,63,29.94,10.0,North,5.8,-,N/A,,Mostly Cloudy,360,2012-10-09 05:53:00